createdAt,value
2023-01-22T00:00:11.198Z,13.10
2023-01-22T00:00:43.953Z,14.02
2023-01-22T00:01:16.919Z,13.43
2023-01-22T00:01:49.704Z,12.93
2023-01-22T00:02:21.551Z,13.50
2023-01-22T00:02:53.392Z,14.77
2023-01-22T00:03:26.232Z,13.70
2023-01-22T00:03:58.139Z,14.07
2023-01-22T00:04:31.320Z,13.02
2023-01-22T00:05:03.318Z,13.10
2023-01-22T00:05:35.163Z,13.18
2023-01-22T00:06:08.400Z,13.20
2023-01-22T00:06:40.210Z,13.20
2023-01-22T00:07:12.669Z,14.07
2023-01-22T00:07:45.464Z,13.57
2023-01-22T00:08:17.235Z,12.50
2023-01-22T00:08:49.159Z,13.90
2023-01-22T00:09:22.292Z,13.07
2023-01-22T00:09:54.066Z,13.20
2023-01-22T00:10:25.934Z,12.85
2023-01-22T00:10:58.912Z,12.30
2023-01-22T00:11:30.859Z,14.35
2023-01-22T00:12:02.673Z,12.93
2023-01-22T00:12:37.385Z,14.65
2023-01-22T00:13:09.163Z,13.98
2023-01-22T00:13:41.460Z,14.00
2023-01-22T00:14:14.349Z,11.98
2023-01-22T00:14:46.346Z,13.25
2023-01-22T00:15:18.188Z,14.85
2023-01-22T00:15:51.455Z,14.40
2023-01-22T00:16:23.307Z,16.15
2023-01-22T00:16:55.185Z,12.75
2023-01-22T00:17:27.969Z,15.05
2023-01-22T00:17:59.812Z,14.80
2023-01-22T00:18:31.955Z,14.27
2023-01-22T00:19:04.693Z,15.20
2023-01-22T00:19:36.479Z,15.10
2023-01-22T00:20:11.270Z,13.95
2023-01-22T00:20:48.288Z,13.77
2023-01-22T00:21:20.097Z,14.27
2023-01-22T00:21:51.937Z,12.98
2023-01-22T00:22:24.719Z,14.13
2023-01-22T00:22:56.522Z,14.02
2023-01-22T00:23:28.309Z,14.18
2023-01-22T00:24:01.147Z,15.13
2023-01-22T00:24:32.965Z,13.00
2023-01-22T00:25:05.810Z,14.18
2023-01-22T00:25:38.658Z,15.27
2023-01-22T00:26:12.871Z,14.25
2023-01-22T00:26:45.142Z,13.25
2023-01-22T00:27:17.924Z,15.90
2023-01-22T00:27:51.099Z,15.27
2023-01-22T00:28:22.876Z,14.90
2023-01-22T00:28:55.653Z,16.15
2023-01-22T00:29:27.500Z,14.65
2023-01-22T00:29:59.310Z,14.80
2023-01-22T00:30:32.082Z,14.93
2023-01-22T00:31:05.907Z,13.45
2023-01-22T00:31:38.254Z,14.77
2023-01-22T00:32:11.379Z,15.65
2023-01-22T00:32:43.243Z,14.75
2023-01-22T00:33:15.057Z,15.23
2023-01-22T00:33:48.268Z,13.38
2023-01-22T00:34:20.102Z,13.93
2023-01-22T00:34:52.585Z,14.15
2023-01-22T00:35:25.485Z,13.10
2023-01-22T00:36:02.993Z,14.77
2023-01-22T00:36:34.962Z,13.35
2023-01-22T00:37:07.731Z,14.68
2023-01-22T00:37:39.677Z,13.98
2023-01-22T00:38:11.469Z,13.43
2023-01-22T00:38:44.503Z,14.10
2023-01-22T00:39:16.266Z,12.90
2023-01-22T00:39:48.058Z,14.38
2023-01-22T00:40:21.027Z,13.82
2023-01-22T00:40:52.805Z,13.80
2023-01-22T00:41:24.609Z,15.07
2023-01-22T00:41:57.365Z,13.93
2023-01-22T00:42:29.202Z,16.58
2023-01-22T00:43:02.357Z,15.20
2023-01-22T00:43:38.498Z,13.73
2023-01-22T00:44:10.285Z,14.38
2023-01-22T00:44:42.121Z,14.25
2023-01-22T00:45:15.529Z,13.82
2023-01-22T00:45:47.531Z,12.40
2023-01-22T00:46:19.391Z,13.82
2023-01-22T00:46:52.654Z,14.05
2023-01-22T00:47:24.559Z,14.27
2023-01-22T00:47:56.362Z,16.50
2023-01-22T00:48:29.232Z,12.40
2023-01-22T00:49:03.460Z,13.15
2023-01-22T00:49:35.249Z,13.90
2023-01-22T00:50:09.578Z,14.98
2023-01-22T00:50:41.402Z,13.80
2023-01-22T00:51:14.748Z,13.82
2023-01-22T00:51:47.618Z,14.07
2023-01-22T00:52:19.410Z,15.02
2023-01-22T00:52:51.488Z,13.95
2023-01-22T00:53:24.336Z,13.43
2023-01-22T00:53:56.247Z,13.43
2023-01-22T00:54:29.744Z,14.02
2023-01-22T00:55:02.606Z,13.48
2023-01-22T00:55:34.495Z,14.50
2023-01-22T00:56:07.398Z,14.70
2023-01-22T00:56:40.171Z,12.75
2023-01-22T00:57:11.939Z,13.80
2023-01-22T00:57:43.769Z,13.60
2023-01-22T00:58:17.894Z,14.77
2023-01-22T00:58:49.723Z,13.32
2023-01-22T00:59:21.542Z,14.98
2023-01-22T00:59:54.492Z,14.57
2023-01-22T01:00:26.450Z,14.77
2023-01-22T01:00:58.338Z,14.57
2023-01-22T01:01:31.133Z,15.52
2023-01-22T01:02:02.995Z,14.55
2023-01-22T01:02:56.182Z,14.82
2023-01-22T01:03:30.168Z,13.13
2023-01-22T01:04:02.930Z,13.45
2023-01-22T01:04:34.743Z,15.23
2023-01-22T01:05:07.198Z,14.43
2023-01-22T01:05:39.963Z,15.18
2023-01-22T01:06:14.565Z,14.95
2023-01-22T01:06:47.377Z,13.77
2023-01-22T01:07:19.163Z,15.20
2023-01-22T01:07:51.137Z,14.73
2023-01-22T01:08:24.763Z,14.80
2023-01-22T01:08:57.145Z,14.70
2023-01-22T01:09:29.952Z,13.80
2023-01-22T01:10:01.790Z,13.88
2023-01-22T01:10:33.604Z,13.77
2023-01-22T01:11:08.093Z,14.25
2023-01-22T01:11:40.024Z,13.57
2023-01-22T01:12:11.854Z,14.73
2023-01-22T01:12:44.635Z,16.08
2023-01-22T01:13:17.758Z,13.68
2023-01-22T01:13:50.929Z,14.15
2023-01-22T01:14:23.753Z,14.07
2023-01-22T01:14:56.324Z,13.60
2023-01-22T01:15:28.178Z,13.77
2023-01-22T01:16:02.416Z,13.68
2023-01-22T01:16:35.417Z,14.00
2023-01-22T01:17:08.154Z,15.05
2023-01-22T01:17:40.031Z,14.27
2023-01-22T01:18:14.141Z,14.93
2023-01-22T01:18:46.437Z,14.23
2023-01-22T01:19:20.397Z,12.40
2023-01-22T01:19:52.181Z,14.43
2023-01-22T01:20:24.006Z,15.38
2023-01-22T01:20:56.076Z,14.45
2023-01-22T01:21:29.817Z,14.52
2023-01-22T01:22:01.688Z,14.70
2023-01-22T01:22:33.566Z,13.20
2023-01-22T01:23:05.378Z,15.27
2023-01-22T01:23:38.299Z,14.85
2023-01-22T01:24:10.860Z,13.68
2023-01-22T01:24:43.652Z,15.02
2023-01-22T01:25:15.449Z,13.80
2023-01-22T01:25:47.257Z,15.25
2023-01-22T01:26:20.030Z,14.35
2023-01-22T01:26:51.907Z,13.27
2023-01-22T01:27:23.697Z,13.95
2023-01-22T01:27:56.458Z,15.57
2023-01-22T01:28:29.568Z,12.65
2023-01-22T01:29:04.203Z,14.80
2023-01-22T01:29:35.998Z,13.95
2023-01-22T01:30:09.080Z,14.00
2023-01-22T01:30:41.990Z,13.88
2023-01-22T01:31:16.510Z,14.45
2023-01-22T01:31:53.089Z,13.80
2023-01-22T01:32:25.983Z,13.40
2023-01-22T01:32:58.467Z,13.75
2023-01-22T01:33:30.282Z,14.50
2023-01-22T01:34:03.420Z,13.85
2023-01-22T01:34:35.250Z,13.65
2023-01-22T01:35:07.768Z,14.85
2023-01-22T01:35:41.134Z,13.07
2023-01-22T01:36:15.243Z,13.93
2023-01-22T01:36:49.596Z,14.85
2023-01-22T01:37:21.686Z,14.48
2023-01-22T01:37:53.531Z,14.13
2023-01-22T01:38:25.423Z,14.48
2023-01-22T01:38:58.549Z,13.68
2023-01-22T01:39:30.349Z,15.75
2023-01-22T01:40:02.182Z,15.07
2023-01-22T01:40:35.429Z,13.38
2023-01-22T01:41:07.548Z,14.18
2023-01-22T01:41:39.344Z,15.52
2023-01-22T01:42:12.100Z,13.15
2023-01-22T01:42:43.925Z,13.07
2023-01-22T01:43:17.046Z,15.00
2023-01-22T01:44:10.102Z,14.07
2023-01-22T01:44:42.823Z,13.20
2023-01-22T01:45:29.859Z,13.70
2023-01-22T01:46:04.429Z,12.77
2023-01-22T01:46:38.132Z,13.65
2023-01-22T01:47:27.818Z,12.80
2023-01-22T01:48:11.686Z,11.77
2023-01-22T01:48:46.633Z,13.40
2023-01-22T01:49:26.105Z,14.27
2023-01-22T01:49:57.943Z,14.48
2023-01-22T01:50:29.929Z,13.35
2023-01-22T01:51:06.961Z,15.25
2023-01-22T01:51:38.802Z,14.02
2023-01-22T01:52:13.971Z,13.23
2023-01-22T01:52:45.986Z,14.75
2023-01-22T01:53:17.901Z,14.40
2023-01-22T01:53:52.489Z,13.50
2023-01-22T01:54:24.601Z,13.77
2023-01-22T01:54:57.940Z,13.88
2023-01-22T01:55:33.754Z,13.50
2023-01-22T01:56:09.773Z,14.07
2023-01-22T01:56:45.423Z,13.80
2023-01-22T01:57:23.487Z,14.73
2023-01-22T01:57:58.422Z,13.73
2023-01-22T01:58:34.077Z,13.85
2023-01-22T01:59:12.818Z,14.23
2023-01-22T01:59:47.554Z,12.88
2023-01-22T02:00:20.373Z,14.95
2023-01-22T02:00:56.915Z,14.13
2023-01-22T02:01:29.109Z,13.13
2023-01-22T02:02:02.993Z,15.45
2023-01-22T02:02:35.758Z,15.00
2023-01-22T02:03:07.581Z,16.45
2023-01-22T02:03:40.371Z,13.13
2023-01-22T02:04:13.149Z,13.65
2023-01-22T02:04:44.923Z,14.55
2023-01-22T02:05:20.466Z,14.25
2023-01-22T02:05:53.623Z,13.95
2023-01-22T02:06:25.487Z,14.20
2023-01-22T02:06:57.473Z,14.32
2023-01-22T02:07:30.349Z,14.57
2023-01-22T02:08:02.460Z,14.00
2023-01-22T02:08:35.999Z,14.23
2023-01-22T02:09:07.954Z,13.02
2023-01-22T02:09:39.754Z,15.43
2023-01-22T02:10:12.552Z,14.00
2023-01-22T02:10:45.316Z,14.70
2023-01-22T02:11:18.852Z,14.25
2023-01-22T02:11:52.962Z,15.55
2023-01-22T02:12:24.886Z,14.55
2023-01-22T02:13:01.222Z,14.73
2023-01-22T02:13:36.718Z,13.85
2023-01-22T02:14:12.475Z,13.98
2023-01-22T02:14:45.825Z,13.38
2023-01-22T02:15:18.079Z,14.25
2023-01-22T02:15:50.855Z,15.05
2023-01-22T02:16:22.831Z,14.55
2023-01-22T02:17:02.028Z,14.15
2023-01-22T02:17:34.897Z,13.95
2023-01-22T02:18:07.219Z,14.90
2023-01-22T02:18:39.509Z,14.43
2023-01-22T02:19:12.566Z,13.95
2023-01-22T02:19:44.393Z,14.45
2023-01-22T02:20:16.834Z,14.32
2023-01-22T02:20:56.558Z,13.98
2023-01-22T02:21:31.616Z,15.18
2023-01-22T02:22:03.551Z,13.60
2023-01-22T02:22:39.730Z,14.30
2023-01-22T02:23:11.613Z,14.52
2023-01-22T02:23:43.396Z,13.77
2023-01-22T02:24:17.913Z,14.60
2023-01-22T02:24:49.894Z,14.98
2023-01-22T02:25:22.504Z,15.07
2023-01-22T02:25:55.831Z,14.65
2023-01-22T02:26:27.989Z,14.48
2023-01-22T02:26:59.902Z,15.45
2023-01-22T02:27:32.677Z,15.10
2023-01-22T02:28:04.751Z,15.30
2023-01-22T02:28:36.679Z,16.33
2023-01-22T02:29:11.000Z,13.35
2023-01-22T02:29:42.964Z,15.40
2023-01-22T02:30:15.573Z,14.23
2023-01-22T02:30:48.448Z,14.05
2023-01-22T02:31:20.388Z,14.23
2023-01-22T02:31:52.362Z,15.43
2023-01-22T02:32:25.244Z,15.65
2023-01-22T02:32:57.120Z,13.30
2023-01-22T02:33:28.940Z,15.15
2023-01-22T02:34:02.799Z,14.10
2023-01-22T02:34:34.833Z,15.07
2023-01-22T02:35:07.390Z,14.82
2023-01-22T02:35:40.335Z,16.20
2023-01-22T02:36:13.541Z,15.23
2023-01-22T02:36:45.473Z,14.80
2023-01-22T02:37:18.566Z,17.33
2023-01-22T02:37:50.382Z,15.23
2023-01-22T02:38:22.150Z,15.65
2023-01-22T02:38:54.137Z,14.82
2023-01-22T02:39:26.979Z,15.65
2023-01-22T02:39:58.735Z,15.27
2023-01-22T02:40:30.525Z,13.98
2023-01-22T02:41:03.305Z,15.38
2023-01-22T02:41:35.191Z,14.77
2023-01-22T02:42:07.768Z,14.35
2023-01-22T02:42:40.588Z,15.18
2023-01-22T02:43:12.395Z,14.32
2023-01-22T02:43:44.214Z,14.63
2023-01-22T02:44:16.973Z,15.60
2023-01-22T02:44:50.072Z,14.13
2023-01-22T02:45:21.979Z,15.38
2023-01-22T02:45:55.075Z,14.15
2023-01-22T02:46:27.277Z,14.25
2023-01-22T02:46:59.210Z,15.93
2023-01-22T02:47:32.006Z,20.65
2023-01-22T02:48:04.195Z,25.65
2023-01-22T02:48:36.113Z,18.75
2023-01-22T02:49:08.965Z,21.65
2023-01-22T02:49:40.879Z,22.77
2023-01-22T02:50:12.826Z,29.02
2023-01-22T02:50:45.152Z,20.92
2023-01-22T02:51:19.358Z,17.38
2023-01-22T02:51:51.296Z,15.65
2023-01-22T02:52:24.117Z,14.50
2023-01-22T02:52:55.910Z,14.88
2023-01-22T02:53:27.740Z,15.38
2023-01-22T02:54:00.570Z,15.80
2023-01-22T02:54:32.708Z,14.68
2023-01-22T02:55:05.699Z,14.68
2023-01-22T02:55:39.361Z,15.73
2023-01-22T02:56:11.603Z,16.85
2023-01-22T02:56:43.535Z,15.00
2023-01-22T02:57:16.345Z,15.20
2023-01-22T02:57:48.165Z,15.32
2023-01-22T02:58:19.961Z,13.18
2023-01-22T02:58:52.716Z,15.18
2023-01-22T02:59:24.634Z,14.75
2023-01-22T02:59:56.472Z,14.55
2023-01-22T03:00:29.287Z,13.40
2023-01-22T03:01:08.221Z,13.23
2023-01-22T03:01:40.240Z,14.43
2023-01-22T03:02:13.143Z,16.10
2023-01-22T03:02:44.950Z,13.95
2023-01-22T03:03:16.754Z,16.05
2023-01-22T03:03:50.997Z,15.02
2023-01-22T03:04:23.072Z,15.43
2023-01-22T03:05:03.167Z,14.55
2023-01-22T03:05:36.105Z,13.52
2023-01-22T03:06:07.988Z,15.18
2023-01-22T03:06:42.861Z,14.50
2023-01-22T03:07:15.606Z,13.98
2023-01-22T03:07:47.519Z,14.65
2023-01-22T03:08:19.878Z,15.98
2023-01-22T03:08:54.407Z,15.23
2023-01-22T03:09:27.197Z,14.50
2023-01-22T03:09:58.977Z,15.60
2023-01-22T03:10:30.814Z,14.43
2023-01-22T03:11:03.606Z,14.35
2023-01-22T03:11:37.756Z,16.02
2023-01-22T03:12:09.761Z,15.93
2023-01-22T03:12:59.905Z,15.90
2023-01-22T03:13:50.741Z,14.95
2023-01-22T03:14:41.363Z,14.25
2023-01-22T03:15:31.914Z,13.60
2023-01-22T03:16:22.824Z,15.57
2023-01-22T03:17:13.665Z,13.82
2023-01-22T03:18:04.216Z,13.48
2023-01-22T03:18:54.708Z,14.30
2023-01-22T03:19:45.087Z,14.38
2023-01-22T03:20:35.280Z,14.30
2023-01-22T03:21:15.006Z,14.05
2023-01-22T03:21:48.180Z,14.73
2023-01-22T03:22:21.220Z,14.85
2023-01-22T03:22:53.054Z,15.75
2023-01-22T03:23:27.963Z,15.30
2023-01-22T03:24:00.741Z,13.18
2023-01-22T03:24:32.575Z,14.70
2023-01-22T03:25:05.048Z,16.52
2023-01-22T03:25:38.063Z,15.30
2023-01-22T03:26:10.124Z,14.52
2023-01-22T03:26:41.969Z,14.05
2023-01-22T03:27:14.791Z,14.93
2023-01-22T03:28:01.504Z,15.35
2023-01-22T03:28:33.418Z,15.10
2023-01-22T03:29:06.353Z,16.08
2023-01-22T03:29:38.277Z,15.07
2023-01-22T03:30:11.813Z,14.45
2023-01-22T03:30:44.563Z,14.65
2023-01-22T03:31:17.175Z,15.15
2023-01-22T03:31:49.215Z,15.25
2023-01-22T03:32:22.685Z,14.85
2023-01-22T03:32:55.263Z,15.70
2023-01-22T03:33:27.104Z,15.05
2023-01-22T03:33:58.999Z,15.57
2023-01-22T03:34:31.811Z,15.93
2023-01-22T03:35:04.434Z,14.23
2023-01-22T03:35:36.286Z,15.90
2023-01-22T03:36:10.527Z,17.83
2023-01-22T03:36:43.680Z,17.83
2023-01-22T03:37:16.902Z,16.90
2023-01-22T03:37:48.788Z,18.63
2023-01-22T03:38:21.569Z,16.38
2023-01-22T03:38:53.408Z,15.75
2023-01-22T03:39:26.296Z,17.20
2023-01-22T03:40:00.099Z,16.95
2023-01-22T03:40:31.898Z,14.70
2023-01-22T03:41:05.244Z,15.60
2023-01-22T03:41:38.439Z,15.63
2023-01-22T03:42:10.339Z,15.32
2023-01-22T03:42:42.146Z,15.32
2023-01-22T03:43:13.955Z,15.23
2023-01-22T03:43:47.336Z,16.88
2023-01-22T03:44:19.338Z,15.25
2023-01-22T03:44:51.126Z,16.00
2023-01-22T03:45:23.903Z,16.13
2023-01-22T03:46:01.237Z,15.85
2023-01-22T03:46:34.691Z,16.67
2023-01-22T03:47:06.515Z,15.68
2023-01-22T03:47:38.450Z,15.27
2023-01-22T03:48:11.217Z,16.70
2023-01-22T03:48:43.805Z,15.10
2023-01-22T03:49:16.048Z,17.58
2023-01-22T03:49:48.792Z,16.20
2023-01-22T03:50:20.735Z,14.93
2023-01-22T03:50:52.548Z,16.45
2023-01-22T03:51:25.867Z,15.23
2023-01-22T03:51:57.722Z,15.52
2023-01-22T03:52:30.861Z,15.73
2023-01-22T03:53:04.014Z,15.93
2023-01-22T03:53:36.962Z,16.20
2023-01-22T03:54:10.837Z,14.07
2023-01-22T03:54:42.634Z,15.20
2023-01-22T03:55:15.578Z,14.52
2023-01-22T03:55:55.720Z,16.05
2023-01-22T03:56:28.089Z,13.90
2023-01-22T03:57:00.958Z,15.90
2023-01-22T03:57:32.868Z,17.13
2023-01-22T03:58:04.740Z,14.25
2023-01-22T03:58:37.698Z,16.23
2023-01-22T03:59:10.361Z,15.32
2023-01-22T03:59:42.154Z,15.80
2023-01-22T04:00:16.055Z,16.02
2023-01-22T04:00:48.690Z,15.32
2023-01-22T04:01:22.551Z,15.82
2023-01-22T04:01:55.366Z,15.77
2023-01-22T04:02:27.282Z,14.25
2023-01-22T04:02:59.122Z,15.40
2023-01-22T04:03:32.090Z,15.43
2023-01-22T04:04:04.407Z,17.45
2023-01-22T04:04:36.192Z,16.55
2023-01-22T04:05:09.535Z,16.80
2023-01-22T04:05:41.379Z,16.30
2023-01-22T04:06:13.539Z,17.90
2023-01-22T04:06:46.346Z,15.95
2023-01-22T04:07:18.178Z,15.75
2023-01-22T04:07:51.561Z,15.50
2023-01-22T04:08:24.310Z,17.05
2023-01-22T04:08:56.612Z,16.00
2023-01-22T04:09:29.469Z,15.40
2023-01-22T04:10:01.261Z,17.13
2023-01-22T04:10:33.038Z,16.27
2023-01-22T04:11:06.148Z,17.00
2023-01-22T04:11:37.978Z,14.90
2023-01-22T04:12:09.813Z,15.75
2023-01-22T04:12:42.636Z,15.18
2023-01-22T04:13:14.812Z,15.43
2023-01-22T04:13:47.071Z,17.20
2023-01-22T04:14:19.863Z,15.90
2023-01-22T04:14:51.660Z,16.25
2023-01-22T04:15:23.491Z,15.68
2023-01-22T04:15:56.288Z,16.10
2023-01-22T04:16:28.230Z,15.25
2023-01-22T04:17:00.127Z,16.27
2023-01-22T04:17:32.875Z,16.42
2023-01-22T04:18:04.927Z,15.70
2023-01-22T04:18:36.815Z,14.90
2023-01-22T04:19:10.879Z,17.88
2023-01-22T04:19:42.707Z,16.02
2023-01-22T04:20:14.598Z,17.70
2023-01-22T04:20:49.322Z,18.27
2023-01-22T04:21:21.201Z,16.08
2023-01-22T04:21:52.987Z,14.65
2023-01-22T04:22:24.809Z,15.88
2023-01-22T04:22:59.087Z,15.50
2023-01-22T04:23:30.920Z,15.45
2023-01-22T04:24:02.802Z,15.27
2023-01-22T04:24:36.339Z,14.73
2023-01-22T04:25:08.808Z,15.98
2023-01-22T04:25:40.621Z,15.80
2023-01-22T04:26:13.547Z,13.88
2023-01-22T04:26:46.135Z,14.85
2023-01-22T04:27:17.959Z,16.05
2023-01-22T04:27:50.728Z,14.95
2023-01-22T04:28:22.608Z,15.52
2023-01-22T04:28:55.054Z,15.70
2023-01-22T04:29:27.829Z,14.80
2023-01-22T04:29:59.647Z,15.95
2023-01-22T04:30:31.510Z,17.95
2023-01-22T04:31:04.998Z,16.38
2023-01-22T04:31:36.949Z,15.60
2023-01-22T04:32:08.873Z,16.25
2023-01-22T04:32:41.618Z,16.95
2023-01-22T04:33:14.041Z,16.55
2023-01-22T04:33:46.803Z,16.48
2023-01-22T04:34:18.606Z,16.98
2023-01-22T04:34:50.430Z,15.40
2023-01-22T04:35:22.507Z,16.25
2023-01-22T04:35:56.366Z,14.98
2023-01-22T04:36:29.324Z,16.40
2023-01-22T04:37:01.218Z,17.20
2023-01-22T04:37:33.008Z,16.77
2023-01-22T04:38:08.377Z,15.55
2023-01-22T04:38:40.195Z,16.88
2023-01-22T04:39:13.015Z,17.77
2023-01-22T04:39:44.826Z,15.70
2023-01-22T04:40:17.275Z,14.65
2023-01-22T04:40:50.521Z,14.52
2023-01-22T04:41:22.320Z,15.23
2023-01-22T04:41:54.146Z,15.35
2023-01-22T04:42:27.151Z,16.02
2023-01-22T04:43:02.836Z,16.30
2023-01-22T04:43:34.649Z,14.85
2023-01-22T04:44:06.437Z,14.90
2023-01-22T04:44:38.258Z,14.40
2023-01-22T04:45:12.019Z,14.55
2023-01-22T04:45:43.946Z,14.93
2023-01-22T04:46:15.844Z,16.38
2023-01-22T04:46:48.685Z,16.63
2023-01-22T04:47:20.493Z,15.27
2023-01-22T04:47:52.322Z,14.88
2023-01-22T04:48:25.118Z,14.27
2023-01-22T04:48:56.940Z,14.82
2023-01-22T04:49:28.746Z,14.10
2023-01-22T04:50:01.592Z,14.55
2023-01-22T04:50:34.157Z,13.57
2023-01-22T04:51:06.247Z,15.35
2023-01-22T04:51:39.052Z,15.75
2023-01-22T04:52:10.881Z,14.75
2023-01-22T04:52:42.755Z,16.20
2023-01-22T04:53:16.897Z,13.95
2023-01-22T04:53:48.727Z,13.43
2023-01-22T04:54:20.648Z,13.82
2023-01-22T04:54:53.835Z,14.05
2023-01-22T04:55:26.394Z,14.35
2023-01-22T04:55:58.174Z,14.57
2023-01-22T04:56:30.945Z,14.90
2023-01-22T04:57:02.751Z,14.05
2023-01-22T04:57:34.544Z,15.35
2023-01-22T04:58:06.361Z,14.00
2023-01-22T04:58:39.221Z,15.32
2023-01-22T04:59:11.196Z,13.95
2023-01-22T04:59:43.018Z,14.98
2023-01-22T05:00:17.486Z,16.05
2023-01-22T05:00:49.460Z,14.10
2023-01-22T05:01:21.313Z,16.02
2023-01-22T05:01:54.155Z,14.65
2023-01-22T05:02:26.281Z,14.95
2023-01-22T05:02:59.824Z,15.55
2023-01-22T05:03:32.637Z,14.57
2023-01-22T05:04:04.736Z,15.30
2023-01-22T05:04:36.537Z,16.60
2023-01-22T05:05:10.564Z,14.68
2023-01-22T05:05:42.425Z,15.38
2023-01-22T05:06:14.287Z,15.05
2023-01-22T05:06:46.132Z,15.68
2023-01-22T05:07:18.893Z,14.45
2023-01-22T05:07:50.777Z,14.68
2023-01-22T05:08:23.950Z,14.75
2023-01-22T05:08:56.747Z,13.60
2023-01-22T05:09:28.538Z,14.70
2023-01-22T05:10:00.489Z,13.07
2023-01-22T05:10:33.289Z,14.52
2023-01-22T05:11:05.560Z,14.30
2023-01-22T05:11:37.357Z,15.30
2023-01-22T05:12:10.232Z,16.70
2023-01-22T05:12:42.018Z,15.68
2023-01-22T05:13:13.860Z,14.40
2023-01-22T05:13:46.597Z,14.57
2023-01-22T05:14:18.498Z,15.30
2023-01-22T05:14:50.273Z,14.48
2023-01-22T05:15:24.745Z,16.95
2023-01-22T05:15:57.136Z,16.98
2023-01-22T05:16:29.078Z,22.73
2023-01-22T05:17:01.890Z,23.63
2023-01-22T05:17:33.722Z,20.30
2023-01-22T05:18:05.559Z,17.48
2023-01-22T05:18:38.312Z,23.33
2023-01-22T05:19:10.112Z,23.88
2023-01-22T05:19:41.969Z,20.73
2023-01-22T05:20:15.134Z,17.38
2023-01-22T05:20:47.037Z,14.75
2023-01-22T05:21:18.853Z,15.73
2023-01-22T05:21:51.640Z,15.73
2023-01-22T05:22:23.507Z,16.00
2023-01-22T05:22:55.376Z,14.00
2023-01-22T05:23:29.476Z,14.10
2023-01-22T05:24:01.286Z,15.70
2023-01-22T05:24:33.108Z,15.25
2023-01-22T05:25:06.688Z,15.18
2023-01-22T05:25:38.517Z,14.88
2023-01-22T05:26:10.523Z,16.08
2023-01-22T05:26:43.310Z,14.95
2023-01-22T05:27:15.262Z,16.15
2023-01-22T05:27:47.052Z,14.55
2023-01-22T05:28:19.891Z,14.35
2023-01-22T05:28:51.940Z,15.77
2023-01-22T05:29:25.972Z,15.32
2023-01-22T05:29:58.755Z,14.00
2023-01-22T05:30:30.562Z,14.52
2023-01-22T05:31:02.573Z,16.52
2023-01-22T05:31:35.402Z,14.85
2023-01-22T05:32:08.049Z,15.63
2023-01-22T05:32:39.875Z,17.70
2023-01-22T05:33:12.660Z,15.57
2023-01-22T05:33:44.920Z,14.93
2023-01-22T05:34:16.827Z,14.65
2023-01-22T05:34:49.637Z,14.65
2023-01-22T05:35:22.487Z,15.60
2023-01-22T05:35:58.070Z,16.00
2023-01-22T05:36:31.037Z,13.95
2023-01-22T05:37:02.883Z,15.00
2023-01-22T05:37:34.716Z,15.73
2023-01-22T05:38:07.507Z,15.35
2023-01-22T05:38:40.702Z,15.82
2023-01-22T05:39:12.779Z,14.18
2023-01-22T05:39:45.517Z,15.05
2023-01-22T05:40:17.865Z,15.50
2023-01-22T05:40:49.810Z,15.32
2023-01-22T05:41:22.602Z,14.85
2023-01-22T05:41:54.869Z,15.00
2023-01-22T05:42:26.753Z,16.85
2023-01-22T05:42:59.511Z,14.75
2023-01-22T05:43:31.322Z,15.60
2023-01-22T05:44:03.623Z,14.85
2023-01-22T05:44:36.390Z,15.05
2023-01-22T05:45:10.069Z,15.25
2023-01-22T05:45:41.902Z,16.35
2023-01-22T05:46:14.722Z,14.52
2023-01-22T05:46:46.606Z,14.48
2023-01-22T05:47:18.595Z,15.40
2023-01-22T05:47:53.288Z,15.25
2023-01-22T05:48:25.089Z,15.85
2023-01-22T05:48:57.080Z,14.98
2023-01-22T05:49:29.875Z,14.88
2023-01-22T05:50:02.193Z,16.98
2023-01-22T05:50:34.000Z,16.10
2023-01-22T05:51:07.505Z,16.13
2023-01-22T05:51:40.282Z,15.68
2023-01-22T05:52:12.149Z,15.48
2023-01-22T05:52:43.980Z,15.48
2023-01-22T05:53:16.786Z,15.30
2023-01-22T05:53:49.995Z,15.50
2023-01-22T05:54:21.787Z,14.55
2023-01-22T05:54:54.615Z,15.82
2023-01-22T05:55:26.408Z,15.23
2023-01-22T05:56:00.726Z,14.95
2023-01-22T05:56:33.614Z,15.20
2023-01-22T05:57:06.067Z,14.75
2023-01-22T05:57:37.917Z,15.02
2023-01-22T05:58:10.684Z,15.43
2023-01-22T05:58:42.730Z,16.25
2023-01-22T05:59:14.735Z,15.52
2023-01-22T05:59:47.520Z,16.00
2023-01-22T06:00:20.063Z,15.48
2023-01-22T06:00:52.999Z,16.60
2023-01-22T06:01:26.417Z,15.50
2023-01-22T06:01:58.261Z,16.77
2023-01-22T06:02:30.155Z,14.60
2023-01-22T06:03:03.133Z,14.82
2023-01-22T06:03:34.990Z,15.20
2023-01-22T06:04:07.019Z,14.82
2023-01-22T06:04:39.808Z,13.90
2023-01-22T06:05:11.765Z,14.75
2023-01-22T06:05:43.590Z,15.75
2023-01-22T06:06:16.033Z,15.38
2023-01-22T06:06:48.796Z,15.00
2023-01-22T06:07:21.669Z,16.35
2023-01-22T06:07:53.665Z,15.38
2023-01-22T06:08:26.947Z,15.73
2023-01-22T06:09:00.175Z,14.77
2023-01-22T06:09:31.990Z,14.98
2023-01-22T06:10:05.155Z,15.00
2023-01-22T06:10:37.081Z,16.48
2023-01-22T06:11:12.196Z,15.30
2023-01-22T06:11:44.956Z,14.60
2023-01-22T06:12:18.392Z,14.90
2023-01-22T06:12:50.269Z,14.40
2023-01-22T06:13:23.034Z,15.93
2023-01-22T06:13:54.831Z,15.75
2023-01-22T06:14:27.633Z,15.70
2023-01-22T06:14:59.451Z,16.88
2023-01-22T06:15:31.268Z,14.65
2023-01-22T06:16:04.190Z,15.23
2023-01-22T06:16:36.426Z,17.15
2023-01-22T06:17:09.239Z,16.65
2023-01-22T06:17:41.051Z,14.55
2023-01-22T06:18:12.852Z,17.13
2023-01-22T06:18:45.665Z,14.95
2023-01-22T06:19:17.459Z,15.35
2023-01-22T06:19:49.284Z,16.42
2023-01-22T06:20:22.091Z,13.38
2023-01-22T06:20:58.243Z,14.43
2023-01-22T06:21:30.098Z,17.02
2023-01-22T06:22:02.890Z,24.60
2023-01-22T06:22:34.773Z,21.65
2023-01-22T06:23:07.508Z,24.58
2023-01-22T06:23:40.296Z,20.95
2023-01-22T06:24:13.585Z,18.30
2023-01-22T06:24:45.475Z,19.25
2023-01-22T06:25:18.391Z,15.82
2023-01-22T06:25:52.643Z,15.40
2023-01-22T06:26:24.448Z,16.02
2023-01-22T06:26:57.602Z,15.05
2023-01-22T06:27:29.507Z,16.73
2023-01-22T06:28:01.390Z,17.70
2023-01-22T06:28:34.172Z,14.18
2023-01-22T06:29:06.167Z,15.48
2023-01-22T06:29:40.075Z,14.27
2023-01-22T06:30:13.638Z,14.98
2023-01-22T06:30:45.691Z,16.30
2023-01-22T06:31:17.661Z,15.20
2023-01-22T06:31:50.581Z,15.63
2023-01-22T06:32:22.406Z,15.82
2023-01-22T06:32:54.272Z,14.85
2023-01-22T06:33:26.201Z,16.00
2023-01-22T06:33:59.009Z,15.75
2023-01-22T06:34:30.862Z,14.52
2023-01-22T06:35:03.665Z,14.45
2023-01-22T06:35:35.479Z,14.10
2023-01-22T06:36:07.910Z,14.95
2023-01-22T06:36:43.469Z,15.18
2023-01-22T06:37:15.483Z,16.10
2023-01-22T06:37:47.346Z,16.35
2023-01-22T06:38:20.138Z,16.77
2023-01-22T06:38:51.980Z,15.55
2023-01-22T06:39:26.175Z,15.02
2023-01-22T06:39:57.978Z,16.98
2023-01-22T06:40:29.806Z,15.15
2023-01-22T06:41:02.606Z,15.40
2023-01-22T06:41:34.466Z,14.95
2023-01-22T06:42:06.355Z,15.75
2023-01-22T06:42:39.101Z,15.00
2023-01-22T06:43:10.939Z,14.13
2023-01-22T06:43:43.733Z,14.10
2023-01-22T06:44:16.103Z,14.90
2023-01-22T06:44:50.493Z,14.93
2023-01-22T06:45:23.229Z,14.40
2023-01-22T06:45:55.501Z,13.23
2023-01-22T06:46:27.361Z,14.55
2023-01-22T06:47:00.156Z,16.70
2023-01-22T06:47:31.971Z,14.80
2023-01-22T06:48:04.052Z,15.00
2023-01-22T06:48:36.867Z,14.40
2023-01-22T06:49:09.714Z,14.07
2023-01-22T06:49:41.603Z,15.35
2023-01-22T06:50:14.772Z,16.67
2023-01-22T06:50:46.653Z,15.30
2023-01-22T06:51:18.554Z,15.70
2023-01-22T06:51:51.407Z,14.40
2023-01-22T06:52:23.207Z,14.90
2023-01-22T06:52:55.028Z,14.80
2023-01-22T06:53:28.336Z,15.38
2023-01-22T06:54:00.163Z,15.82
2023-01-22T06:54:33.377Z,15.25
2023-01-22T06:55:06.842Z,15.68
2023-01-22T06:55:38.711Z,15.73
2023-01-22T06:56:10.527Z,15.25
2023-01-22T06:56:43.292Z,15.77
2023-01-22T06:57:15.231Z,14.00
2023-01-22T06:57:48.017Z,13.68
2023-01-22T06:58:19.824Z,15.77
2023-01-22T06:58:51.672Z,14.60
2023-01-22T06:59:24.503Z,15.95
2023-01-22T06:59:56.311Z,15.02
2023-01-22T07:00:28.166Z,14.23
2023-01-22T07:01:02.291Z,14.10
2023-01-22T07:01:34.114Z,16.15
2023-01-22T07:02:06.073Z,15.25
2023-01-22T07:02:37.856Z,15.45
2023-01-22T07:03:10.605Z,15.40
2023-01-22T07:03:42.473Z,16.05
2023-01-22T07:04:14.339Z,16.38
2023-01-22T07:04:47.187Z,14.68
2023-01-22T07:05:19.980Z,15.43